createdAt,value
2022-07-30T00:00:23.844Z,86238.56
2022-07-30T00:02:53.611Z,86274.91
2022-07-30T00:05:21.674Z,86248.28
2022-07-30T00:08:14.075Z,86269.44
2022-07-30T00:10:41.626Z,86270.94
2022-07-30T00:13:08.608Z,86243.50
2022-07-30T00:15:35.936Z,86254.94
2022-07-30T00:18:03.335Z,86255.78
2022-07-30T00:20:32.288Z,86254.59
2022-07-30T00:22:59.719Z,86250.81
2022-07-30T00:25:34.279Z,86238.66
2022-07-30T00:28:01.680Z,86263.25
2022-07-30T00:30:29.166Z,86262.50
2022-07-30T00:32:56.842Z,86234.47
2022-07-30T00:35:24.219Z,86242.22
2022-07-30T00:37:55.432Z,86270.44
2022-07-30T00:40:47.776Z,86267.03
2022-07-30T00:43:40.716Z,86265.66
2022-07-30T00:46:08.806Z,86244.72
2022-07-30T00:48:37.320Z,86249.91
2022-07-30T00:51:10.861Z,86236.75
2022-07-30T00:54:09.822Z,86245.09
2022-07-30T00:56:38.519Z,86233.34
2022-07-30T00:59:05.903Z,86229.00
2022-07-30T01:01:33.741Z,86203.81
2022-07-30T01:04:01.673Z,86206.16
2022-07-30T01:06:29.473Z,86203.22
2022-07-30T01:08:58.242Z,86212.00
2022-07-30T01:11:34.330Z,86186.97
2022-07-30T01:14:08.206Z,86215.94
2022-07-30T01:16:38.197Z,86220.06
2022-07-30T01:19:29.607Z,86177.19
2022-07-30T01:22:31.247Z,86214.06
2022-07-30T01:25:10.964Z,86204.28
2022-07-30T01:27:57.595Z,86206.25
2022-07-30T01:30:29.824Z,86210.47
2022-07-30T01:33:00.708Z,86195.56
2022-07-30T01:35:31.262Z,86181.28
2022-07-30T01:38:01.269Z,86210.78
2022-07-30T01:41:20.442Z,86210.78
2022-07-30T01:43:49.196Z,86178.63
2022-07-30T01:46:18.096Z,86185.59
2022-07-30T01:48:50.596Z,86187.50
2022-07-30T01:51:44.847Z,86191.53
2022-07-30T01:54:40.911Z,86183.41
2022-07-30T01:57:10.938Z,86185.91
2022-07-30T01:59:40.872Z,86186.66
2022-07-30T02:02:08.681Z,86190.22
2022-07-30T02:04:41.692Z,86199.63
2022-07-30T02:07:20.325Z,86185.22
2022-07-30T02:09:58.625Z,86202.44
2022-07-30T02:12:30.425Z,86173.25
2022-07-30T02:15:10.911Z,86191.28
2022-07-30T02:17:45.586Z,86189.78
2022-07-30T02:20:17.390Z,86180.16
2022-07-30T02:22:47.675Z,86188.41
2022-07-30T02:25:21.394Z,86186.34
2022-07-30T02:27:55.113Z,86160.59
2022-07-30T02:30:28.713Z,86195.31
2022-07-30T02:33:08.611Z,86198.81
2022-07-30T02:35:38.287Z,86165.22
2022-07-30T02:38:07.004Z,86201.00
2022-07-30T02:41:25.102Z,86202.91
2022-07-30T02:43:54.607Z,86192.97
2022-07-30T02:46:25.561Z,86180.59
2022-07-30T02:49:15.188Z,86169.59
2022-07-30T02:55:05.490Z,86186.66
2022-07-30T02:57:35.094Z,86191.28
2022-07-30T03:00:05.386Z,86199.13
2022-07-30T03:02:34.571Z,86176.13
2022-07-30T03:05:30.222Z,86185.84
2022-07-30T03:08:01.091Z,86186.53
2022-07-30T03:10:29.784Z,86189.94
2022-07-30T03:12:58.885Z,86188.56
2022-07-30T03:15:27.508Z,86157.84
2022-07-30T03:18:00.764Z,86187.41
2022-07-30T03:20:56.655Z,86183.34
2022-07-30T03:24:15.743Z,86165.59
2022-07-30T03:26:45.158Z,86179.59
2022-07-30T03:29:15.155Z,86181.13
2022-07-30T03:31:43.372Z,86147.09
2022-07-30T03:34:13.179Z,86162.00
2022-07-30T03:36:42.378Z,86160.84
2022-07-30T03:39:10.735Z,86181.97
2022-07-30T03:41:39.190Z,86177.56
2022-07-30T03:44:12.403Z,86193.69
2022-07-30T03:46:42.658Z,86177.69
2022-07-30T03:49:11.944Z,86149.91
2022-07-30T03:51:45.054Z,86173.06
2022-07-30T03:54:13.931Z,86175.13
2022-07-30T03:56:42.117Z,86167.81
2022-07-30T03:59:24.147Z,86182.22
2022-07-30T04:01:52.732Z,86178.81
2022-07-30T04:04:45.978Z,86178.69
2022-07-30T04:07:14.093Z,86180.03
2022-07-30T04:09:41.946Z,86174.56
2022-07-30T04:12:40.679Z,86185.34
2022-07-30T04:16:37.073Z,86186.84
2022-07-30T04:18:24.211Z,86186.72
2022-07-30T04:20:52.661Z,86195.13
2022-07-30T04:23:20.485Z,86169.88
2022-07-30T04:25:49.067Z,86202.81
2022-07-30T04:28:17.922Z,86168.81
2022-07-30T04:30:46.325Z,86193.41
2022-07-30T04:33:14.148Z,86185.91
2022-07-30T04:35:51.175Z,86198.13
2022-07-30T04:38:44.781Z,86191.81
2022-07-30T04:41:49.474Z,86206.91
2022-07-30T04:44:37.772Z,86206.16
2022-07-30T04:47:27.673Z,86197.59
2022-07-30T04:50:30.538Z,86180.31
2022-07-30T04:53:00.418Z,86180.75
2022-07-30T04:55:32.261Z,86182.72
2022-07-30T04:58:02.333Z,86194.13
2022-07-30T05:00:38.987Z,86197.38
2022-07-30T05:03:13.111Z,86174.69
2022-07-30T05:05:44.693Z,86208.28
2022-07-30T05:08:13.792Z,86179.91
2022-07-30T05:10:41.158Z,86173.47
2022-07-30T05:13:14.672Z,86204.66
2022-07-30T05:15:44.849Z,86200.94
2022-07-30T05:18:14.265Z,86188.47
2022-07-30T05:20:46.730Z,86197.88
2022-07-30T05:23:28.987Z,86201.22
2022-07-30T05:26:04.184Z,86187.31
2022-07-30T05:28:57.346Z,86172.84
2022-07-30T05:31:32.874Z,86207.63
2022-07-30T05:34:03.944Z,86186.16
2022-07-30T05:36:45.129Z,86205.63
2022-07-30T05:39:57.165Z,86186.19
2022-07-30T05:42:44.227Z,86212.00
2022-07-30T05:45:12.093Z,86184.66
2022-07-30T05:47:40.775Z,86139.31
2022-07-30T05:50:09.360Z,86188.81
2022-07-30T05:53:01.931Z,86214.78
2022-07-30T05:55:59.312Z,86213.69
2022-07-30T05:59:10.370Z,86214.63
2022-07-30T06:02:10.268Z,86198.50
2022-07-30T06:05:00.496Z,86181.53
2022-07-30T06:07:28.817Z,86203.25
2022-07-30T06:10:00.393Z,86205.59
2022-07-30T06:12:30.130Z,86202.38
2022-07-30T06:14:58.425Z,86180.19
2022-07-30T06:17:41.241Z,86201.47
2022-07-30T06:20:20.156Z,86193.13
2022-07-30T06:23:08.757Z,86178.94
2022-07-30T06:26:16.155Z,86201.44
2022-07-30T06:28:44.860Z,86199.72
2022-07-30T06:31:42.413Z,86187.66
2022-07-30T06:34:12.537Z,86192.84
2022-07-30T06:36:43.217Z,86198.59
2022-07-30T06:39:53.821Z,86200.25
2022-07-30T06:42:21.294Z,86175.44
2022-07-30T06:48:33.840Z,86186.22
2022-07-30T06:51:05.350Z,86194.53
2022-07-30T06:54:03.974Z,86204.47
2022-07-30T06:56:37.509Z,86183.56
2022-07-30T06:59:32.570Z,86215.50
2022-07-30T07:02:26.863Z,86205.03
2022-07-30T07:05:07.917Z,86188.81
2022-07-30T07:08:01.383Z,86182.84
2022-07-30T07:10:34.634Z,86205.75
2022-07-30T07:13:31.110Z,86187.56
2022-07-30T07:15:59.853Z,86170.81
2022-07-30T07:18:29.706Z,86201.19
2022-07-30T07:24:21.038Z,86203.25
2022-07-30T07:26:58.272Z,86199.88
2022-07-30T07:29:28.384Z,86201.50
2022-07-30T07:32:07.350Z,86194.25
2022-07-30T07:34:36.914Z,86184.06
2022-07-30T07:37:29.105Z,86173.44
2022-07-30T07:39:56.984Z,86173.28
2022-07-30T07:42:24.772Z,86177.69
2022-07-30T07:44:53.467Z,86172.13
2022-07-30T07:47:21.188Z,86170.06
2022-07-30T07:50:04.496Z,86184.75
2022-07-30T07:52:58.231Z,86186.78
2022-07-30T07:58:26.577Z,86165.50
2022-07-30T08:00:58.336Z,86194.47
2022-07-30T08:03:46.059Z,86174.50
2022-07-30T08:06:33.533Z,86189.63
2022-07-30T08:09:24.613Z,86177.88
2022-07-30T08:12:24.816Z,86138.91
2022-07-30T08:15:11.769Z,86187.75
2022-07-30T08:18:03.390Z,86138.44
2022-07-30T08:20:46.509Z,86170.97
2022-07-30T08:23:16.348Z,86185.50
2022-07-30T08:25:44.193Z,86181.25
2022-07-30T08:28:36.826Z,86183.44
2022-07-30T08:31:07.060Z,86148.28
2022-07-30T08:33:35.228Z,86178.09
2022-07-30T08:36:10.537Z,86177.31
2022-07-30T08:39:29.486Z,86181.19
2022-07-30T08:42:00.198Z,86174.72
2022-07-30T08:44:29.625Z,86149.91
2022-07-30T08:47:26.702Z,86177.88
2022-07-30T08:50:16.657Z,86162.44
2022-07-30T08:53:52.738Z,86175.22
2022-07-30T08:56:21.127Z,86146.66
2022-07-30T08:58:49.685Z,86142.50
2022-07-30T09:01:22.300Z,86165.81
2022-07-30T09:03:49.786Z,86167.44
2022-07-30T09:06:19.454Z,86155.28
2022-07-30T09:08:47.265Z,86158.91
2022-07-30T09:11:14.686Z,86163.66
2022-07-30T09:13:44.698Z,86145.38
2022-07-30T09:16:19.618Z,86140.25
2022-07-30T09:19:30.292Z,86145.09
2022-07-30T09:22:00.629Z,86135.91
2022-07-30T09:25:37.411Z,86144.66
2022-07-30T09:28:33.593Z,86158.44
2022-07-30T09:31:21.586Z,86144.06
2022-07-30T09:34:25.302Z,86148.25
2022-07-30T09:37:29.301Z,86147.41
2022-07-30T09:43:47.772Z,86130.16
2022-07-30T09:46:47.409Z,86131.97
2022-07-30T09:49:24.081Z,86131.41
2022-07-30T09:51:55.455Z,86094.31
2022-07-30T09:54:52.992Z,86130.31
2022-07-30T09:57:27.953Z,86121.94
2022-07-30T10:00:23.928Z,86097.97
2022-07-30T10:03:47.814Z,86134.16
2022-07-30T10:06:35.094Z,86136.41
2022-07-30T10:09:25.378Z,86117.44
2022-07-30T10:12:02.607Z,86108.06
2022-07-30T10:14:34.769Z,86131.38
2022-07-30T10:17:10.835Z,86108.50
2022-07-30T10:19:43.471Z,86116.78
2022-07-30T10:22:35.856Z,86100.34
2022-07-30T10:25:28.107Z,86127.78
2022-07-30T10:28:28.287Z,86094.09
2022-07-30T10:30:59.905Z,86092.25
2022-07-30T10:33:34.643Z,86119.31
2022-07-30T10:36:05.945Z,86089.59
2022-07-30T10:39:05.474Z,86088.25
2022-07-30T10:41:47.680Z,86105.28
2022-07-30T10:44:47.364Z,86096.81
2022-07-30T10:47:18.825Z,86115.56
2022-07-30T10:50:14.561Z,86109.41
2022-07-30T10:53:01.869Z,86105.22
2022-07-30T10:55:37.461Z,86083.22
2022-07-30T10:58:15.649Z,86106.72
2022-07-30T11:00:52.318Z,86105.38
2022-07-30T11:03:41.584Z,86093.25
2022-07-30T11:06:24.262Z,86100.69
2022-07-30T11:08:57.133Z,86094.69
2022-07-30T11:11:59.661Z,86092.00
2022-07-30T11:14:14.957Z,86098.00
2022-07-30T11:16:43.053Z,86100.09
2022-07-30T11:19:56.150Z,86099.78
2022-07-30T11:22:40.619Z,86090.34
2022-07-30T11:25:13.098Z,86088.69
2022-07-30T11:27:46.849Z,86098.91
2022-07-30T11:30:41.196Z,86087.22
2022-07-30T11:33:12.352Z,86088.97
2022-07-30T11:35:40.146Z,86083.28
2022-07-30T11:38:39.951Z,86084.22
2022-07-30T11:41:33.985Z,86054.13
2022-07-30T11:44:52.083Z,86086.81
2022-07-30T11:47:20.153Z,86041.06
2022-07-30T11:49:47.570Z,86066.59
2022-07-30T11:52:23.447Z,86081.47
2022-07-30T11:54:55.761Z,86084.78
2022-07-30T11:57:40.755Z,86088.31
2022-07-30T12:00:09.217Z,86079.06
2022-07-30T12:02:42.731Z,86068.16
2022-07-30T12:05:10.559Z,86071.56
2022-07-30T12:08:03.242Z,86073.53
2022-07-30T12:10:31.892Z,86056.75
2022-07-30T12:13:12.438Z,86050.00
2022-07-30T12:15:45.822Z,86073.91
2022-07-30T12:18:29.490Z,86073.69
2022-07-30T12:21:24.283Z,86067.09
2022-07-30T12:31:04.744Z,86074.31
2022-07-30T12:33:32.210Z,86037.25
2022-07-30T12:36:01.591Z,86064.97
2022-07-30T12:38:29.212Z,86044.50
2022-07-30T12:41:11.365Z,86060.69
2022-07-30T12:43:57.168Z,86047.75
2022-07-30T12:46:28.463Z,86057.06
2022-07-30T12:49:05.157Z,86038.38
2022-07-30T12:52:00.014Z,86036.84
2022-07-30T12:54:31.159Z,86028.94
2022-07-30T12:57:05.680Z,86043.34
2022-07-30T12:59:34.118Z,86048.97
2022-07-30T13:02:02.600Z,86017.25
2022-07-30T13:07:23.947Z,86041.91
2022-07-30T13:10:10.891Z,86040.56
2022-07-30T13:13:04.156Z,86034.72
2022-07-30T13:15:31.756Z,86039.53
2022-07-30T13:18:23.779Z,86029.03
2022-07-30T13:20:51.729Z,86031.47
2022-07-30T13:23:19.927Z,86022.28
2022-07-30T13:29:05.101Z,86025.88
2022-07-30T13:31:43.232Z,86007.66
2022-07-30T13:34:12.449Z,85991.44
2022-07-30T13:36:40.869Z,85995.44
2022-07-30T13:39:08.985Z,86004.88
2022-07-30T13:41:36.948Z,86021.81
2022-07-30T13:44:10.091Z,86023.69
2022-07-30T13:46:41.053Z,86004.56
2022-07-30T13:49:11.119Z,86019.34
2022-07-30T13:51:38.411Z,86017.84
2022-07-30T13:54:31.363Z,86023.00
2022-07-30T13:56:59.161Z,86018.78
2022-07-30T13:59:26.668Z,85996.59
2022-07-30T14:01:53.975Z,86022.16
2022-07-30T14:04:21.443Z,86022.84
2022-07-30T14:06:49.492Z,86022.25
2022-07-30T14:09:45.851Z,86021.81
2022-07-30T14:12:40.410Z,86027.66
2022-07-30T14:15:09.832Z,86008.09
2022-07-30T14:18:26.712Z,86022.03
2022-07-30T14:20:54.689Z,86001.91
2022-07-30T14:23:22.759Z,86000.84
2022-07-30T14:25:50.764Z,86018.00
2022-07-30T14:28:21.272Z,85994.78
2022-07-30T14:30:49.479Z,86010.75
2022-07-30T14:33:17.381Z,86010.56
2022-07-30T14:35:44.326Z,86003.03
2022-07-30T14:38:11.802Z,85995.88
2022-07-30T14:40:41.405Z,85984.78
2022-07-30T14:43:09.156Z,86000.09
2022-07-30T14:45:36.692Z,85990.66
2022-07-30T14:48:05.273Z,85986.91
2022-07-30T14:50:32.738Z,86010.16
2022-07-30T14:53:01.168Z,86023.66
2022-07-30T14:55:28.941Z,85992.34
2022-07-30T14:57:56.914Z,86025.19
2022-07-30T15:00:25.217Z,86012.06
2022-07-30T15:02:56.351Z,86015.63
2022-07-30T15:05:24.996Z,86023.47
2022-07-30T15:07:58.354Z,85990.50
2022-07-30T15:10:25.987Z,86024.03
2022-07-30T15:12:53.388Z,86023.91
2022-07-30T15:15:21.119Z,86002.66
2022-07-30T15:18:16.913Z,86020.25
2022-07-30T15:20:44.397Z,86016.31
2022-07-30T15:23:13.620Z,86004.56
2022-07-30T15:25:42.387Z,86016.72
2022-07-30T15:28:34.538Z,86009.56
2022-07-30T15:31:02.483Z,85982.38
2022-07-30T15:33:30.617Z,85991.44
2022-07-30T15:36:05.105Z,86005.38
2022-07-30T15:38:33.633Z,86001.44
2022-07-30T15:41:26.712Z,85978.47
2022-07-30T15:44:19.538Z,85991.84
2022-07-30T15:46:49.609Z,85990.09
2022-07-30T15:49:18.949Z,85998.75
2022-07-30T15:51:49.107Z,85973.59
2022-07-30T15:55:31.459Z,86000.09
2022-07-30T15:58:15.315Z,85990.75
2022-07-30T16:00:42.860Z,85964.41
2022-07-30T16:03:10.235Z,85982.09
2022-07-30T16:05:51.453Z,85979.94
2022-07-30T16:08:23.911Z,85994.56
2022-07-30T16:10:52.140Z,85967.09
2022-07-30T16:13:19.618Z,85977.09
2022-07-30T16:15:47.299Z,85977.78
2022-07-30T16:18:14.897Z,85962.78
2022-07-30T16:20:42.739Z,85984.38
2022-07-30T16:23:13.287Z,85995.34
2022-07-30T16:25:42.684Z,85997.66
2022-07-30T16:28:34.843Z,86000.50
2022-07-30T16:31:02.643Z,86003.75
2022-07-30T16:33:30.120Z,85960.91
2022-07-30T16:35:58.178Z,85959.41
2022-07-30T16:38:25.923Z,85983.75
2022-07-30T16:41:18.807Z,85982.38
2022-07-30T16:43:46.495Z,85962.38
2022-07-30T16:46:14.197Z,85996.19
2022-07-30T16:48:41.683Z,85999.41
2022-07-30T16:51:09.060Z,85993.72
2022-07-30T16:54:03.463Z,85997.00
2022-07-30T16:56:56.360Z,86010.63
2022-07-30T16:59:24.192Z,85997.91
2022-07-30T17:01:51.509Z,86003.72
2022-07-30T17:04:19.411Z,86006.81
2022-07-30T17:06:47.265Z,85996.00
2022-07-30T17:09:15.886Z,85998.03
2022-07-30T17:11:52.396Z,86015.59
2022-07-30T17:14:22.485Z,86006.34
2022-07-30T17:16:50.124Z,86010.97
2022-07-30T17:19:17.850Z,86004.19
2022-07-30T17:24:36.619Z,85942.88
2022-07-30T17:27:04.873Z,85995.66
2022-07-30T17:29:32.465Z,85996.63
2022-07-30T17:32:01.079Z,86001.72
2022-07-30T17:34:28.964Z,86012.94
2022-07-30T17:36:59.924Z,85997.13
2022-07-30T17:40:27.224Z,85991.13
2022-07-30T17:42:16.323Z,85989.59
2022-07-30T17:45:09.752Z,86009.38
2022-07-30T17:47:39.224Z,85998.38
2022-07-30T17:50:32.775Z,86009.72
2022-07-30T17:53:03.370Z,85993.88
2022-07-30T17:55:35.249Z,85994.66
2022-07-30T17:58:04.859Z,86021.34
2022-07-30T18:00:34.970Z,86028.59
2022-07-30T18:03:03.612Z,86019.38
2022-07-30T18:05:31.054Z,86030.88
2022-07-30T18:10:50.389Z,86029.00
2022-07-30T18:13:26.534Z,86022.31
2022-07-30T18:15:55.218Z,86021.13
2022-07-30T18:18:25.157Z,86028.00
2022-07-30T18:20:52.529Z,85996.59
2022-07-30T18:23:20.410Z,86027.47
2022-07-30T18:25:51.653Z,86007.94
2022-07-30T18:28:23.519Z,85998.88
2022-07-30T18:30:52.475Z,86000.81
2022-07-30T18:33:44.445Z,86008.44
2022-07-30T18:36:40.657Z,86028.38
2022-07-30T18:39:08.480Z,86005.81
2022-07-30T18:41:36.766Z,86021.22
2022-07-30T18:47:20.388Z,86028.00
2022-07-30T18:49:50.246Z,86042.28
2022-07-30T18:52:18.603Z,86013.81
2022-07-30T18:57:38.045Z,86020.28
2022-07-30T19:00:11.079Z,86033.41
2022-07-30T19:03:26.372Z,86025.38
2022-07-30T19:05:53.999Z,86033.09
2022-07-30T19:08:21.592Z,86041.38
2022-07-30T19:10:48.993Z,86046.91
2022-07-30T19:13:16.351Z,86051.44
2022-07-30T19:15:44.391Z,86046.94
2022-07-30T19:18:11.781Z,86032.50
2022-07-30T19:20:39.931Z,86029.31
2022-07-30T19:23:33.367Z,86058.19
2022-07-30T19:26:26.440Z,86044.38
2022-07-30T19:28:54.401Z,86037.50
2022-07-30T19:31:22.680Z,86035.22
2022-07-30T19:34:14.911Z,86050.28
2022-07-30T19:36:42.776Z,86035.78
2022-07-30T19:42:48.003Z,86039.53
2022-07-30T19:45:21.331Z,86047.63
2022-07-30T19:47:52.015Z,86032.38
2022-07-30T19:50:20.007Z,86037.94
2022-07-30T19:54:10.689Z,86039.63
2022-07-30T19:57:04.714Z,86038.63
2022-07-30T19:59:45.577Z,86054.47
2022-07-30T20:06:04.486Z,86077.09
2022-07-30T20:08:38.414Z,86087.25
2022-07-30T20:11:07.578Z,86087.94
2022-07-30T20:13:45.432Z,86088.59
2022-07-30T20:16:38.743Z,86083.63
2022-07-30T20:19:36.160Z,86083.63
2022-07-30T20:22:29.668Z,86066.22
2022-07-30T20:25:22.669Z,86075.94
2022-07-30T20:27:51.919Z,86041.63
2022-07-30T20:30:25.428Z,86053.28
2022-07-30T20:32:53.241Z,86083.47
2022-07-30T20:35:21.607Z,86084.41
2022-07-30T20:37:55.504Z,86079.75
2022-07-30T20:41:38.593Z,86071.38
2022-07-30T20:44:31.321Z,86067.09
2022-07-30T20:47:34.309Z,86061.22
2022-07-30T20:50:09.527Z,86025.91
2022-07-30T20:53:03.086Z,86051.59
2022-07-30T20:55:30.457Z,86029.91
2022-07-30T20:58:10.001Z,86033.19
2022-07-30T21:01:09.398Z,86035.31
2022-07-30T21:03:48.149Z,86030.13
2022-07-30T21:06:17.452Z,86048.09
2022-07-30T21:08:45.405Z,86056.78
2022-07-30T21:11:14.585Z,86051.00
2022-07-30T21:13:42.734Z,86045.38
2022-07-30T21:16:15.903Z,86027.75
2022-07-30T21:22:02.312Z,86052.38
2022-07-30T21:24:29.921Z,86007.28
2022-07-30T21:26:57.465Z,86048.44
2022-07-30T21:29:29.053Z,86049.22
2022-07-30T21:32:01.387Z,86015.03
2022-07-30T21:34:35.445Z,86056.41
2022-07-30T21:37:10.282Z,86093.94
2022-07-30T21:39:41.861Z,86090.50
2022-07-30T21:42:09.500Z,86107.56
2022-07-30T21:44:38.513Z,86128.56
2022-07-30T21:47:31.752Z,86095.78
2022-07-30T21:50:24.828Z,86148.47
2022-07-30T21:53:16.864Z,86149.38
2022-07-30T21:59:17.171Z,86140.75
2022-07-30T22:01:50.508Z,86176.16
2022-07-30T22:04:23.471Z,86172.13
2022-07-30T22:06:54.530Z,86191.94
2022-07-30T22:09:34.122Z,86185.69
2022-07-30T22:12:55.628Z,86225.25
2022-07-30T22:15:24.846Z,86218.88
2022-07-30T22:18:17.440Z,86250.47
2022-07-30T22:20:49.350Z,86240.06
2022-07-30T22:23:19.016Z,86239.34
2022-07-30T22:25:48.403Z,86211.56
2022-07-30T22:28:42.348Z,86247.09
2022-07-30T22:31:15.943Z,86250.84
2022-07-30T22:33:44.052Z,86240.59
2022-07-30T22:36:36.465Z,86250.00
2022-07-30T22:39:04.274Z,86237.72
2022-07-30T22:41:37.883Z,86233.94
2022-07-30T22:44:30.709Z,86219.63
2022-07-30T22:50:23.774Z,86196.28
2022-07-30T22:54:11.081Z,86229.31
2022-07-30T22:56:31.579Z,86209.22
2022-07-30T22:59:55.869Z,86210.63
2022-07-30T23:02:12.768Z,86211.16
2022-07-30T23:05:30.743Z,86199.72
2022-07-30T23:08:30.115Z,86173.56
2022-07-30T23:11:15.252Z,86184.00
2022-07-30T23:12:16.862Z,86037.78
2022-07-30T23:12:27.126Z,86007.59
2022-07-30T23:13:43.525Z,86182.03
2022-07-30T23:16:11.093Z,86150.25
2022-07-30T23:18:38.541Z,86157.22
2022-07-30T23:24:21.880Z,86141.69
2022-07-30T23:26:50.497Z,86106.31
2022-07-30T23:29:18.828Z,86077.63
2022-07-30T23:31:47.065Z,86092.09
2022-07-30T23:34:14.273Z,86073.16
2022-07-30T23:36:41.643Z,86045.94
2022-07-30T23:39:09.887Z,86034.25
2022-07-30T23:41:37.284Z,86034.72
2022-07-30T23:44:33.229Z,85999.66
2022-07-30T23:47:52.960Z,85991.50
2022-07-30T23:50:17.965Z,86006.97
2022-07-30T23:53:10.223Z,86011.31
2022-07-30T23:55:38.295Z,86008.69
2022-07-30T23:58:05.866Z,85983.25
